Granada, CO (81041)

04:29 PM MDT del 01 Agosto 2014 (GMT -0600)
Schenck Farms (KCOHOLLY3) Alt. 3619 ft | 37.90 °N, 102.11 °W | Change Station

Current weather conditions updated 2 minutes ago

Scattered Clouds
Nubi sparse
83.3 °F
Sembra 82 °F
N
8.0
Vento Variabile Vento da ENE
Gusts 11.0 mph

Per domani non si prevedono cambiamenti della temperatura rispetto a oggi.

Oggi
Massima -- | Minima -- °F
--% Possibilità di precip.
Ieri
Massima -- | Minima -- °F
Precip. -- in
5:52 AM 7:58 PM
Luna crescente, 30% visible
Pressione 30.02 in
Visibilità 10.0 miglia
Nuvole Nubi sparse 7500 ft
Indice di calore 82 °F
Punto di rugiada 50 °F
Umidità 32%
Piovosità 0.00 in
Spessore del manto nevoso Non disponibile.
Raggi UV 8 fuori da 12
Polline 7.60 fuori da 12
Qualità dell'aria Non disponibile.
Flu Activity Non disponibile.
METAR KLAA 012053Z AUTO 16007KT 10SM SCT075 29/11 A3015 RMK AO2 SLP164 T02940106 58014

More Conditions Fewer Conditions

Pressione 30.02 in
Visibilità 10.0 miglia
Nuvole Nubi sparse 7500 ft
Indice di calore 82 °F
Punto di rugiada 50 °F
Umidità 32%
Piovosità 0.00 in
Spessore del manto nevoso Non disponibile.
Raggi UV 8 fuori da 12
Polline 7.60 fuori da 12
Qualità dell'aria Non disponibile.
Flu Activity Non disponibile.
METAR KLAA 012053Z AUTO 16007KT 10SM SCT075 29/11 A3015 RMK AO2 SLP164 T02940106 58014

More Conditions Fewer Conditions

10-Day Weather Forecast

Almanac

Astronomia

Aug. 01, 2014 Alba Tramonto
Ora attuale 05:52 MDT 19:58 MDT
Crepuscolo civile 05:23 MDT 20:27 MDT
Crepuscolo nautico 04:47 MDT 21:02 MDT
Crepuscolo astronomico 04:09 MDT 21:41 MDT
Luna 11:12 MDT 22:50 MDT
Estensione della luce visibile 15h 03m
Lunghezza del giorno
14h 05m
Tomorrow will be 1m 51s shorter.
Luna crescente, 30% of the Moon is Illuminated
Oggi
Luna crescente
Ago 3
Primo quarto
Ago 10
Luna piena
Ago 17
Ultimo quarto
Ago 25
Nuovo

Gli estremi di oggi

State Highs State Lows

Community

WunderPhotos

Upload Photos

1,739,723 foto caricate!

Nearby

Profondità neve

Stazione Profondità Altitudine
Apishapa 0 in 10000 ft
Trinchera 1 in 10860 ft
Culebra #2 0 in 10500 ft
Ute Creek 0 in 10650 ft
Medano Pass 0 in 9620 ft

Attività sismica

Città  Distanza Mag. Data & Ora
Non sono state riportate attività sismiche nelle vicinanze.
Minimo Magnitudo Mostrato è 2.5.

Temperature delle acque costiere

Località Temperatura
Nessun dato dalle stazioni

Stazioni meteo nelle vicinanze

Ubicazione della stazione Temp. Indice di calore Punto di rugiada Umidità Vento Precip. Alt. Aggiornato Tipo
Schenck Farms, Holly, CO 83.3 °F 82 °F 50 °F 32% ENE  a  8.0 mph 0.00 in / hr 3619 ft 4:26 PM MDT Normale
Musick on 196, Holly, CO 85.8 °F 84 °F 54 °F 33% ESE  a  1.0 mph 0.00 in / hr 3579 ft 4:14 PM MDT Normale

Show More Stations Show Fewer Stations